MST,Max TemperatureF,Mean TemperatureF,Min TemperatureF,Max Dew PointF,MeanDew PointF,Min DewpointF,Max Humidity, Mean Humidity, Min Humidity, Max Sea Level PressureIn, Mean Sea Level PressureIn, Min Sea Level PressureIn, Max VisibilityMiles, Mean VisibilityMiles, Min VisibilityMiles, Max Wind SpeedMPH, Mean Wind SpeedMPH, Max Gust SpeedMPH,PrecipitationIn, CloudCover, Events, WindDirDegrees
2012-11-1,50,44,37,28,21,14,70,41,24,30.14,30.02,29.93,10.0,10.0,10.0,22,12,43,0.00,0,,246
2012-11-2,44,38,32,27,21,16,65,53,39,30.15,30.07,30.00,10.0,10.0,10.0,15,6,22,0.00,1,,293
2012-11-3,46,39,32,21,15,7,64,41,26,30.20,30.15,30.10,10.0,10.0,10.0,17,7,21,0.00,1,,264
2012-11-4,50,42,35,28,23,10,70,49,31,30.36,30.27,30.18,10.0,10.0,10.0,12,6,,0.00,2,,290
2012-11-5,53,44,35,32,27,21,70,50,30,30.34,30.29,30.25,10.0,10.0,10.0,13,3,,0.00,1,,245
2012-11-6,55,46,37,28,21,12,57,37,24,30.33,30.28,30.20,10.0,10.0,10.0,20,6,25,0.00,0,,252
2012-11-7,51,43,35,27,24,18,70,45,32,30.20,30.07,29.98,10.0,10.0,10.0,21,11,29,0.00,0,,247
2012-11-8,51,42,33,25,21,18,70,44,28,29.98,29.82,29.68,10.0,10.0,10.0,15,9,25,0.00,2,,218
2012-11-9,37,32,28,34,29,21,100,87,52,29.67,29.53,29.45,10.0,5.3,0.2,32,13,43,0.02,8,Snow-Thunderstorm,213
2012-11-10,28,16,3,27,15,1,100,92,73,29.46,29.45,29.43,10.0,4.5,0.2,10,6,,0.00,7,Fog-Snow,314
2012-11-11,14,8,3,7,3,-2,92,70,53,,,,10.0,9.3,0.2,24,8,31,0.00,0,Fog-Snow,266
2012-11-12,28,19,10,18,10,-0,93,69,50,,,,10.0,9.9,5.0,24,14,31,0.00,1,,253
2012-11-13,30,26,21,23,21,18,100,84,69,30.16,30.15,30.13,10.0,9.4,0.2,23,14,28,0.01,3,Fog,246
2012-11-14,32,28,23,28,23,19,100,79,69,30.16,30.09,30.04,10.0,9.7,2.5,20,6,29,0.00,4,Snow,264
2012-11-15,32,28,23,23,19,9,86,69,38,30.23,30.19,30.15,10.0,10.0,10.0,20,9,26,0.00,0,,258
2012-11-16,37,32,28,27,21,16,80,64,45,30.10,30.04,29.99,10.0,10.0,10.0,22,9,31,0.00,2,,241
2012-11-17,37,30,24,32,28,21,100,88,65,30.07,30.02,29.94,10.0,9.5,0.8,17,7,22,0.00,5,Snow,245
2012-11-18,33,30,28,32,31,23,100,97,69,30.04,29.93,29.87,10.0,3.9,0.2,29,15,36,0.00,6,Fog-Snow-Thunderstorm,244
2012-11-19,35,32,28,32,29,25,100,91,65,30.19,30.14,30.07,10.0,6.1,0.2,31,12,41,0.01,4,Fog-Snow,242
2012-11-20,41,34,28,32,29,25,100,78,60,30.21,30.12,30.01,10.0,9.8,1.0,26,16,34,0.00,0,,246
2012-11-21,41,36,32,30,26,21,93,66,52,30.02,29.93,29.84,10.0,9.7,1.2,31,23,41,0.00,3,Snow,246
2012-11-22,32,28,21,30,8,-17,93,48,13,30.30,30.09,29.87,10.0,10.0,10.0,36,13,48,0.00,0,,267
2012-11-23,42,30,19,21,13,-4,64,45,21,30.35,30.28,30.21,10.0,10.0,10.0,23,8,31,0.00,0,,250
2012-11-24,41,34,26,27,20,12,86,59,33,30.19,30.06,29.96,10.0,10.0,10.0,17,9,25,0.00,2,,206
2012-11-25,35,29,23,28,23,12,100,74,44,29.96,29.86,29.79,10.0,9.6,0.2,26,9,39,0.00,3,Snow,277
2012-11-26,30,24,17,23,15,-4,100,77,25,30.11,30.09,30.07,10.0,8.4,0.2,21,12,26,0.00,4,Fog-Snow,267
2012-11-27,37,28,19,18,12,5,74,52,28,30.16,30.14,30.11,10.0,10.0,10.0,22,12,25,0.00,0,,240
2012-11-28,42,37,32,19,12,5,56,38,25,30.17,30.10,29.98,10.0,10.0,10.0,25,12,31,0.00,0,,250
2012-11-29,39,34,30,28,22,18,87,63,48,30.04,30.00,29.90,10.0,10.0,10.0,29,14,37,0.00,3,,248
2012-11-30,37,34,30,32,29,23,100,83,69,30.01,29.86,29.76,10.0,8.2,0.2,37,17,48,0.00,2,Snow,242